EZY8385 EGLL-LSGG
Flight info
| Callsign | EZY8385 |
|---|---|
| Flight time | N/A |
| Altitude | 32000 |
| Route | MODMI M185 MID UL612 VEULE DCT PEKIM DCT PILUL DCT PIMUP DCT PIXIS DCT PIBAT DCT LUSAR |
| Aircraft | A20N/M-SDE2E3FGHIRWXY/LB1 |
Departure
| Time | N/A |
|---|---|
| Airport | London Heathrow Airport (EGLL) |
Arrival
| Time | 2026-05-07 21:57 |
|---|---|
| Airport | Geneva International Airport (LSGG) |
| Time | Latitude | Longitude | Altitude | Speed | Heading |
|---|---|---|---|---|---|
| 2026-05-07 20:50 | 51.03854 | -0.60502 | 15808 ft | 363 kts | 163° |
| 2026-05-07 20:50 | 51.01590 | -0.58629 | 16526 ft | 370 kts | 148° |
| 2026-05-07 20:50 | 50.99516 | -0.56371 | 16884 ft | 373 kts | 147° |
| 2026-05-07 20:51 | 50.97382 | -0.54038 | 17044 ft | 374 kts | 147° |
| 2026-05-07 20:51 | 50.95240 | -0.51712 | 17045 ft | 373 kts | 148° |
| 2026-05-07 20:51 | 50.93101 | -0.49407 | 17039 ft | 373 kts | 148° |
| 2026-05-07 20:51 | 50.90985 | -0.47139 | 17047 ft | 373 kts | 148° |
| 2026-05-07 20:52 | 50.88852 | -0.44860 | 17079 ft | 375 kts | 148° |
| 2026-05-07 20:52 | 50.86680 | -0.42549 | 17544 ft | 381 kts | 148° |
| 2026-05-07 20:52 | 50.84455 | -0.40184 | 18394 ft | 381 kts | 148° |
| 2026-05-07 20:52 | 50.82278 | -0.37873 | 19084 ft | 384 kts | 148° |
| 2026-05-07 20:53 | 50.80006 | -0.35467 | 19753 ft | 388 kts | 148° |
| 2026-05-07 20:53 | 50.77784 | -0.33118 | 20415 ft | 391 kts | 148° |
| 2026-05-07 20:53 | 50.75486 | -0.30692 | 21060 ft | 395 kts | 148° |
| 2026-05-07 20:53 | 50.73222 | -0.28303 | 21675 ft | 398 kts | 148° |
| 2026-05-07 20:54 | 50.70889 | -0.25844 | 22294 ft | 402 kts | 148° |
| 2026-05-07 20:54 | 50.68568 | -0.23401 | 22853 ft | 405 kts | 148° |
| 2026-05-07 20:54 | 50.66236 | -0.20948 | 23419 ft | 409 kts | 148° |
| 2026-05-07 20:54 | 50.63876 | -0.18469 | 23964 ft | 412 kts | 148° |
| 2026-05-07 20:55 | 50.61488 | -0.15964 | 24493 ft | 415 kts | 148° |
| 2026-05-07 20:55 | 50.59080 | -0.13443 | 25014 ft | 418 kts | 148° |
| 2026-05-07 20:55 | 50.56670 | -0.10924 | 25519 ft | 421 kts | 148° |
| 2026-05-07 20:55 | 50.54230 | -0.08375 | 26009 ft | 423 kts | 148° |
| 2026-05-07 20:56 | 50.51776 | -0.05815 | 26482 ft | 426 kts | 148° |
| 2026-05-07 20:56 | 50.49260 | -0.03192 | 26938 ft | 429 kts | 148° |
| 2026-05-07 20:56 | 50.46782 | -0.00613 | 27364 ft | 432 kts | 148° |
| 2026-05-07 20:56 | 50.44282 | 0.01986 | 27889 ft | 432 kts | 148° |
| 2026-05-07 20:57 | 50.41794 | 0.04570 | 28511 ft | 430 kts | 148° |
| 2026-05-07 20:57 | 50.39354 | 0.07101 | 29105 ft | 428 kts | 148° |
| 2026-05-07 20:57 | 50.36892 | 0.09651 | 29662 ft | 426 kts | 148° |
| 2026-05-07 20:57 | 50.34438 | 0.12190 | 30197 ft | 425 kts | 148° |
| 2026-05-07 20:58 | 50.31959 | 0.14750 | 30692 ft | 425 kts | 148° |
| 2026-05-07 20:58 | 50.29534 | 0.17253 | 31012 ft | 428 kts | 148° |
| 2026-05-07 20:58 | 50.27488 | 0.19362 | 31036 ft | 429 kts | 148° |
| 2026-05-07 20:59 | 50.22456 | 0.24540 | 31045 ft | 428 kts | 148° |
| 2026-05-07 20:59 | 50.17488 | 0.29635 | 31048 ft | 428 kts | 148° |
| 2026-05-07 21:00 | 50.12556 | 0.34682 | 31052 ft | 429 kts | 148° |
| 2026-05-07 21:00 | 50.10035 | 0.37257 | 31254 ft | 433 kts | 148° |
| 2026-05-07 21:00 | 50.07527 | 0.39817 | 31749 ft | 431 kts | 148° |
| 2026-05-07 21:00 | 50.05043 | 0.42351 | 32028 ft | 432 kts | 148° |
| 2026-05-07 21:01 | 50.02531 | 0.44908 | 32038 ft | 432 kts | 148° |
| 2026-05-07 21:01 | 49.97535 | 0.49985 | 32038 ft | 432 kts | 148° |
| 2026-05-07 21:02 | 49.92486 | 0.55103 | 32039 ft | 432 kts | 148° |
| 2026-05-07 21:02 | 49.87459 | 0.60296 | 32043 ft | 433 kts | 146° |
| 2026-05-07 21:03 | 49.82745 | 0.66215 | 32042 ft | 435 kts | 140° |
| 2026-05-07 21:03 | 49.78304 | 0.72672 | 32041 ft | 435 kts | 139° |
| 2026-05-07 21:04 | 49.73840 | 0.79162 | 32044 ft | 435 kts | 139° |
| 2026-05-07 21:04 | 49.69440 | 0.85535 | 32045 ft | 435 kts | 140° |
| 2026-05-07 21:05 | 49.65036 | 0.91899 | 32042 ft | 435 kts | 140° |
| 2026-05-07 21:05 | 49.60595 | 0.98295 | 32046 ft | 436 kts | 140° |
| 2026-05-07 21:06 | 49.56133 | 1.04706 | 32042 ft | 436 kts | 140° |
| 2026-05-07 21:06 | 49.51665 | 1.11109 | 32040 ft | 436 kts | 140° |
| 2026-05-07 21:07 | 49.47172 | 1.17529 | 32039 ft | 436 kts | 140° |
| 2026-05-07 21:07 | 49.42446 | 1.23295 | 32034 ft | 434 kts | 147° |
| 2026-05-07 21:08 | 49.37438 | 1.28599 | 32026 ft | 434 kts | 147° |
| 2026-05-07 21:08 | 49.32442 | 1.33907 | 32021 ft | 434 kts | 147° |
| 2026-05-07 21:09 | 49.27399 | 1.39285 | 32024 ft | 449 kts | 147° |
| 2026-05-07 21:09 | 49.22176 | 1.44861 | 32017 ft | 452 kts | 147° |
| 2026-05-07 21:10 | 49.16993 | 1.50386 | 32015 ft | 452 kts | 147° |
| 2026-05-07 21:10 | 49.11800 | 1.55906 | 32017 ft | 452 kts | 147° |
| 2026-05-07 21:11 | 49.06606 | 1.61414 | 32013 ft | 453 kts | 147° |
| 2026-05-07 21:11 | 48.98817 | 1.69648 | 32013 ft | 453 kts | 148° |
| 2026-05-07 21:12 | 48.93593 | 1.75152 | 32016 ft | 453 kts | 148° |
| 2026-05-07 21:12 | 48.88425 | 1.80584 | 32016 ft | 453 kts | 148° |
| 2026-05-07 21:13 | 48.83219 | 1.86044 | 32016 ft | 453 kts | 148° |
| 2026-05-07 21:13 | 48.77990 | 1.91508 | 32020 ft | 453 kts | 148° |
| 2026-05-07 21:14 | 48.72822 | 1.96893 | 32022 ft | 453 kts | 148° |
| 2026-05-07 21:14 | 48.67621 | 2.02309 | 32023 ft | 452 kts | 148° |
| 2026-05-07 21:15 | 48.62428 | 2.07701 | 32025 ft | 452 kts | 148° |
| 2026-05-07 21:15 | 48.57216 | 2.13096 | 32020 ft | 452 kts | 148° |
| 2026-05-07 21:16 | 48.52016 | 2.18465 | 32016 ft | 452 kts | 148° |
| 2026-05-07 21:16 | 48.46804 | 2.23834 | 32011 ft | 452 kts | 148° |
| 2026-05-07 21:17 | 48.41610 | 2.29169 | 32014 ft | 452 kts | 148° |
| 2026-05-07 21:17 | 48.36379 | 2.34530 | 32016 ft | 452 kts | 148° |
| 2026-05-07 21:18 | 48.31193 | 2.39827 | 32015 ft | 452 kts | 148° |
| 2026-05-07 21:18 | 48.25990 | 2.45129 | 32011 ft | 452 kts | 148° |
| 2026-05-07 21:19 | 48.20736 | 2.50473 | 32011 ft | 452 kts | 148° |
| 2026-05-07 21:19 | 48.15503 | 2.55780 | 32014 ft | 452 kts | 148° |
| 2026-05-07 21:20 | 48.10224 | 2.61120 | 32009 ft | 452 kts | 148° |
| 2026-05-07 21:20 | 48.05004 | 2.66387 | 32008 ft | 452 kts | 149° |
| 2026-05-07 21:21 | 47.99738 | 2.71687 | 32010 ft | 452 kts | 149° |
| 2026-05-07 21:21 | 47.94524 | 2.76923 | 32006 ft | 453 kts | 149° |
| 2026-05-07 21:22 | 47.89259 | 2.82195 | 32002 ft | 452 kts | 149° |
| 2026-05-07 21:22 | 47.83974 | 2.87476 | 32005 ft | 452 kts | 149° |
| 2026-05-07 21:23 | 47.78701 | 2.92733 | 32003 ft | 452 kts | 149° |
| 2026-05-07 21:23 | 47.73438 | 2.97966 | 31999 ft | 453 kts | 149° |
| 2026-05-07 21:24 | 47.68180 | 3.03180 | 32002 ft | 453 kts | 149° |
| 2026-05-07 21:24 | 47.62909 | 3.08395 | 31998 ft | 453 kts | 149° |
| 2026-05-07 21:25 | 47.57608 | 3.13626 | 31998 ft | 453 kts | 149° |
| 2026-05-07 21:25 | 47.52356 | 3.18797 | 31996 ft | 453 kts | 149° |
| 2026-05-07 21:26 | 47.47081 | 3.23979 | 31994 ft | 446 kts | 149° |
| 2026-05-07 21:26 | 47.41959 | 3.29001 | 32001 ft | 437 kts | 149° |
| 2026-05-07 21:27 | 47.36855 | 3.33987 | 32002 ft | 437 kts | 149° |
| 2026-05-07 21:27 | 47.31760 | 3.38955 | 32001 ft | 436 kts | 149° |
| 2026-05-07 21:28 | 47.26639 | 3.43936 | 32001 ft | 437 kts | 149° |
| 2026-05-07 21:28 | 47.21690 | 3.48749 | 32001 ft | 437 kts | 149° |
| 2026-05-07 21:29 | 47.16500 | 3.53760 | 32008 ft | 437 kts | 149° |
| 2026-05-07 21:29 | 47.11402 | 3.58679 | 32016 ft | 437 kts | 149° |
| 2026-05-07 21:30 | 47.06266 | 3.63632 | 32021 ft | 437 kts | 149° |
| 2026-05-07 21:30 | 47.01154 | 3.68577 | 32019 ft | 438 kts | 148° |
| 2026-05-07 21:31 | 46.96504 | 3.74457 | 32024 ft | 442 kts | 136° |
| 2026-05-07 21:31 | 46.92735 | 3.81735 | 32018 ft | 446 kts | 124° |
| 2026-05-07 21:32 | 46.90059 | 3.89989 | 32027 ft | 450 kts | 114° |
| 2026-05-07 21:32 | 46.87821 | 3.98617 | 32022 ft | 451 kts | 113° |
| 2026-05-07 21:33 | 46.85566 | 4.07239 | 32018 ft | 452 kts | 114° |
| 2026-05-07 21:33 | 46.83281 | 4.15834 | 32014 ft | 453 kts | 114° |
| 2026-05-07 21:34 | 46.81073 | 4.24467 | 32013 ft | 454 kts | 110° |
| 2026-05-07 21:34 | 46.79451 | 4.33431 | 32019 ft | 456 kts | 104° |
| 2026-05-07 21:35 | 46.78141 | 4.42486 | 32013 ft | 456 kts | 104° |
| 2026-05-07 21:35 | 46.76816 | 4.51624 | 32013 ft | 456 kts | 104° |
| 2026-05-07 21:36 | 46.75486 | 4.60685 | 32009 ft | 456 kts | 104° |
| 2026-05-07 21:36 | 46.74133 | 4.69831 | 32009 ft | 457 kts | 105° |
| 2026-05-07 21:37 | 46.73459 | 4.74360 | 31675 ft | 460 kts | 105° |
| 2026-05-07 21:37 | 46.72773 | 4.78946 | 30835 ft | 463 kts | 105° |
| 2026-05-07 21:37 | 46.72079 | 4.83579 | 30030 ft | 464 kts | 105° |
| 2026-05-07 21:37 | 46.71385 | 4.88196 | 29240 ft | 465 kts | 104° |
| 2026-05-07 21:38 | 46.70698 | 4.92758 | 28459 ft | 465 kts | 104° |
| 2026-05-07 21:38 | 46.69997 | 4.97403 | 27652 ft | 464 kts | 104° |
| 2026-05-07 21:38 | 46.69309 | 5.01957 | 26892 ft | 463 kts | 104° |
| 2026-05-07 21:38 | 46.68609 | 5.06582 | 26355 ft | 456 kts | 104° |
| 2026-05-07 21:39 | 46.67927 | 5.11066 | 25815 ft | 450 kts | 104° |
| 2026-05-07 21:39 | 46.67254 | 5.15475 | 25271 ft | 444 kts | 104° |
| 2026-05-07 21:39 | 46.66575 | 5.19926 | 24725 ft | 439 kts | 104° |
| 2026-05-07 21:39 | 46.65953 | 5.24032 | 24214 ft | 435 kts | 104° |
| 2026-05-07 21:40 | 46.65304 | 5.28337 | 23656 ft | 431 kts | 104° |
| 2026-05-07 21:40 | 46.64664 | 5.32575 | 23111 ft | 427 kts | 104° |
| 2026-05-07 21:40 | 46.64026 | 5.36791 | 22567 ft | 423 kts | 104° |
| 2026-05-07 21:40 | 46.63388 | 5.40972 | 22025 ft | 419 kts | 104° |
| 2026-05-07 21:41 | 46.62758 | 5.45095 | 21471 ft | 415 kts | 104° |
| 2026-05-07 21:41 | 46.62134 | 5.49157 | 20925 ft | 411 kts | 104° |
| 2026-05-07 21:41 | 46.61506 | 5.53203 | 20375 ft | 408 kts | 103° |
| 2026-05-07 21:41 | 46.60884 | 5.57197 | 19824 ft | 404 kts | 103° |
| 2026-05-07 21:42 | 46.60261 | 5.61188 | 19290 ft | 401 kts | 103° |
| 2026-05-07 21:42 | 46.59652 | 5.65094 | 18755 ft | 397 kts | 104° |
| 2026-05-07 21:42 | 46.59039 | 5.69003 | 18221 ft | 394 kts | 104° |
| 2026-05-07 21:42 | 46.58431 | 5.72875 | 17698 ft | 390 kts | 104° |
| 2026-05-07 21:43 | 46.57819 | 5.76752 | 17171 ft | 387 kts | 105° |
| 2026-05-07 21:43 | 46.56907 | 5.80344 | 16625 ft | 381 kts | 122° |
| 2026-05-07 21:43 | 46.55248 | 5.83312 | 16094 ft | 374 kts | 141° |
| 2026-05-07 21:43 | 46.53188 | 5.85508 | 15586 ft | 370 kts | 148° |
| 2026-05-07 21:44 | 46.51067 | 5.87577 | 15070 ft | 367 kts | 148° |
| 2026-05-07 21:44 | 46.48975 | 5.89625 | 14561 ft | 364 kts | 147° |
| 2026-05-07 21:44 | 46.46883 | 5.91699 | 14050 ft | 362 kts | 147° |
| 2026-05-07 21:44 | 46.44818 | 5.93758 | 13540 ft | 359 kts | 147° |
| 2026-05-07 21:45 | 46.42787 | 5.95788 | 13059 ft | 356 kts | 147° |
| 2026-05-07 21:45 | 46.40778 | 5.97799 | 12781 ft | 346 kts | 147° |
| 2026-05-07 21:45 | 46.38845 | 5.99733 | 12621 ft | 332 kts | 147° |
| 2026-05-07 21:45 | 46.36958 | 6.01618 | 12460 ft | 319 kts | 148° |
| 2026-05-07 21:46 | 46.35004 | 6.02942 | 12262 ft | 304 kts | 172° |
| 2026-05-07 21:46 | 46.32976 | 6.02779 | 12053 ft | 292 kts | 198° |
| 2026-05-07 21:46 | 46.31213 | 6.01336 | 11638 ft | 290 kts | 222° |
| 2026-05-07 21:46 | 46.29813 | 5.99250 | 11263 ft | 288 kts | 226° |
| 2026-05-07 21:47 | 46.28448 | 5.97171 | 10891 ft | 286 kts | 226° |
| 2026-05-07 21:47 | 46.27069 | 5.95111 | 10542 ft | 284 kts | 225° |
| 2026-05-07 21:47 | 46.25698 | 5.93089 | 10184 ft | 282 kts | 225° |
| 2026-05-07 21:47 | 46.24321 | 5.91076 | 9821 ft | 280 kts | 225° |
| 2026-05-07 21:48 | 46.22973 | 5.89110 | 9463 ft | 278 kts | 225° |
| 2026-05-07 21:48 | 46.21641 | 5.87172 | 9115 ft | 276 kts | 225° |
| 2026-05-07 21:48 | 46.20307 | 5.85232 | 8766 ft | 274 kts | 224° |
| 2026-05-07 21:48 | 46.18952 | 5.83264 | 8418 ft | 272 kts | 224° |
| 2026-05-07 21:49 | 46.17631 | 5.81348 | 8080 ft | 270 kts | 224° |
| 2026-05-07 21:49 | 46.16310 | 5.79433 | 7748 ft | 268 kts | 224° |
| 2026-05-07 21:49 | 46.14996 | 5.77530 | 7416 ft | 266 kts | 225° |
| 2026-05-07 21:49 | 46.13721 | 5.75682 | 7219 ft | 258 kts | 224° |
| 2026-05-07 21:50 | 46.12420 | 5.73957 | 7117 ft | 245 kts | 211° |
| 2026-05-07 21:50 | 46.10870 | 5.73310 | 7008 ft | 231 kts | 177° |
| 2026-05-07 21:50 | 46.09347 | 5.73925 | 6841 ft | 227 kts | 148° |
| 2026-05-07 21:50 | 46.08240 | 5.75521 | 6548 ft | 226 kts | 118° |
| 2026-05-07 21:51 | 46.07690 | 5.77605 | 6297 ft | 224 kts | 107° |
| 2026-05-07 21:51 | 46.07239 | 5.79761 | 6129 ft | 218 kts | 107° |
| 2026-05-07 21:51 | 46.06796 | 5.81857 | 6126 ft | 217 kts | 107° |
| 2026-05-07 21:51 | 46.06362 | 5.83933 | 6080 ft | 217 kts | 101° |
| 2026-05-07 21:52 | 46.06475 | 5.86041 | 5877 ft | 211 kts | 62° |
| 2026-05-07 21:52 | 46.07444 | 5.87612 | 5612 ft | 210 kts | 40° |
| 2026-05-07 21:52 | 46.08572 | 5.88930 | 5315 ft | 210 kts | 41° |
| 2026-05-07 21:52 | 46.09679 | 5.90307 | 5016 ft | 210 kts | 43° |
| 2026-05-07 21:53 | 46.10760 | 5.91748 | 4717 ft | 210 kts | 44° |
| 2026-05-07 21:53 | 46.11808 | 5.93232 | 4487 ft | 205 kts | 45° |
| 2026-05-07 21:53 | 46.12788 | 5.94664 | 4230 ft | 198 kts | 46° |
| 2026-05-07 21:53 | 46.13750 | 5.96086 | 3938 ft | 193 kts | 46° |
| 2026-05-07 21:54 | 46.14650 | 5.97418 | 3679 ft | 177 kts | 46° |
| 2026-05-07 21:54 | 46.15490 | 5.98658 | 3425 ft | 163 kts | 45° |
| 2026-05-07 21:54 | 46.16241 | 5.99767 | 3208 ft | 148 kts | 45° |
| 2026-05-07 21:54 | 46.16925 | 6.00775 | 2996 ft | 135 kts | 45° |
| 2026-05-07 21:55 | 46.17579 | 6.01738 | 2836 ft | 134 kts | 45° |
| 2026-05-07 21:55 | 46.18214 | 6.02672 | 2679 ft | 133 kts | 45° |
| 2026-05-07 21:55 | 46.18858 | 6.03620 | 2511 ft | 133 kts | 45° |
| 2026-05-07 21:55 | 46.19501 | 6.04574 | 2335 ft | 133 kts | 46° |
| 2026-05-07 21:56 | 46.20142 | 6.05535 | 2177 ft | 132 kts | 45° |
| 2026-05-07 21:56 | 46.20782 | 6.06447 | 2021 ft | 132 kts | 45° |
| 2026-05-07 21:56 | 46.21411 | 6.07383 | 1873 ft | 131 kts | 46° |
| 2026-05-07 21:56 | 46.22045 | 6.08303 | 1674 ft | 130 kts | 46° |
| 2026-05-07 21:57 | 46.22657 | 6.09214 | 1493 ft | 129 kts | 45° |
| 2026-05-07 21:57 | 46.23214 | 6.10027 | 1388 ft | 93 kts | 45° |
| 2026-05-07 21:57 | 46.23502 | 6.10449 | 1380 ft | 46 kts | 45° |
| 2026-05-07 21:57 | 46.23670 | 6.10698 | 1377 ft | 16 kts | 56° |
| 2026-05-07 21:58 | 46.23620 | 6.10734 | 1377 ft | 12 kts | 194° |
| 2026-05-07 21:58 | 46.23538 | 6.10698 | 1379 ft | 11 kts | 194° |
| 2026-05-07 21:58 | 46.23465 | 6.10673 | 1381 ft | 11 kts | 193° |
| 2026-05-07 21:58 | 46.23392 | 6.10633 | 1382 ft | 11 kts | 213° |
| 2026-05-07 21:59 | 46.23339 | 6.10555 | 1383 ft | 11 kts | 227° |
| 2026-05-07 21:59 | 46.23286 | 6.10521 | 1384 ft | 8 kts | 145° |
| 2026-05-07 21:59 | 46.23246 | 6.10570 | 1386 ft | 7 kts | 137° |
| 2026-05-07 21:59 | 46.23213 | 6.10616 | 1388 ft | 6 kts | 136° |
| 2026-05-07 22:00 | 46.23183 | 6.10649 | 1389 ft | 6 kts | 161° |
| 2026-05-07 22:00 | 46.23149 | 6.10674 | 1390 ft | 4 kts | 137° |
| 2026-05-07 22:00 | 46.23132 | 6.10697 | 1391 ft | 1 kts | 136° |
| 2026-05-07 22:00 | 46.23131 | 6.10699 | 1391 ft | 2 kts | 135° |
| 2026-05-07 22:01 | 46.23128 | 6.10703 | 1391 ft | 0 kts | 135° |